sensor_id;sensor_type;location;lat;lon;timestamp;temperature;humidity
52267;DHT22;38223;50.940;4.034;2023-09-18T00:00:21;22.70;99.90
52267;DHT22;38223;50.940;4.034;2023-09-18T00:02:53;22.90;99.90
52267;DHT22;38223;50.940;4.034;2023-09-18T00:05:22;22.90;99.90
52267;DHT22;38223;50.940;4.034;2023-09-18T00:07:56;22.80;99.90
52267;DHT22;38223;50.940;4.034;2023-09-18T00:10:27;22.90;99.90
52267;DHT22;38223;50.940;4.034;2023-09-18T00:13:01;22.90;99.90
52267;DHT22;38223;50.940;4.034;2023-09-18T00:15:29;23.10;99.90
52267;DHT22;38223;50.940;4.034;2023-09-18T00:18:03;22.80;99.90
52267;DHT22;38223;50.940;4.034;2023-09-18T00:20:35;22.60;99.90
52267;DHT22;38223;50.940;4.034;2023-09-18T00:23:10;22.70;99.90
52267;DHT22;38223;50.940;4.034;2023-09-18T00:25:40;22.70;99.90
52267;DHT22;38223;50.940;4.034;2023-09-18T00:28:10;22.70;99.90
52267;DHT22;38223;50.940;4.034;2023-09-18T00:30:48;22.60;99.90
52267;DHT22;38223;50.940;4.034;2023-09-18T00:33:24;22.50;99.90
52267;DHT22;38223;50.940;4.034;2023-09-18T00:35:53;22.30;99.90
52267;DHT22;38223;50.940;4.034;2023-09-18T00:38:29;22.30;99.90
52267;DHT22;38223;50.940;4.034;2023-09-18T00:40:58;22.30;99.90
52267;DHT22;38223;50.940;4.034;2023-09-18T00:43:31;22.00;99.90
52267;DHT22;38223;50.940;4.034;2023-09-18T00:46:01;21.70;99.90
52267;DHT22;38223;50.940;4.034;2023-09-18T00:48:34;21.50;99.90
52267;DHT22;38223;50.940;4.034;2023-09-18T00:51:07;21.30;99.90
52267;DHT22;38223;50.940;4.034;2023-09-18T00:53:42;21.20;99.90
52267;DHT22;38223;50.940;4.034;2023-09-18T00:56:11;21.20;99.90
52267;DHT22;38223;50.940;4.034;2023-09-18T00:58:44;21.20;99.90
52267;DHT22;38223;50.940;4.034;2023-09-18T01:01:17;21.10;99.90
52267;DHT22;38223;50.940;4.034;2023-09-18T01:03:51;21.20;99.90
52267;DHT22;38223;50.940;4.034;2023-09-18T01:06:24;21.20;99.90
52267;DHT22;38223;50.940;4.034;2023-09-18T01:08:58;21.10;99.90
52267;DHT22;38223;50.940;4.034;2023-09-18T01:14:19;21.20;99.90
52267;DHT22;38223;50.940;4.034;2023-09-18T01:16:58;21.10;99.90
52267;DHT22;38223;50.940;4.034;2023-09-18T01:19:40;21.10;99.90
52267;DHT22;38223;50.940;4.034;2023-09-18T01:22:14;20.90;99.90
52267;DHT22;38223;50.940;4.034;2023-09-18T01:24:48;21.00;99.90
52267;DHT22;38223;50.940;4.034;2023-09-18T01:27:20;21.10;99.90
52267;DHT22;38223;50.940;4.034;2023-09-18T01:29:51;21.20;99.90
52267;DHT22;38223;50.940;4.034;2023-09-18T01:32:26;21.20;99.90
52267;DHT22;38223;50.940;4.034;2023-09-18T01:34:56;21.10;99.90
52267;DHT22;38223;50.940;4.034;2023-09-18T01:37:30;21.10;99.90
52267;DHT22;38223;50.940;4.034;2023-09-18T01:40:08;21.10;99.90
52267;DHT22;38223;50.940;4.034;2023-09-18T01:42:38;21.00;99.90
52267;DHT22;38223;50.940;4.034;2023-09-18T01:45:13;21.00;99.90
52267;DHT22;38223;50.940;4.034;2023-09-18T01:47:42;20.90;99.90
52267;DHT22;38223;50.940;4.034;2023-09-18T01:50:11;20.70;99.90
52267;DHT22;38223;50.940;4.034;2023-09-18T01:52:43;20.50;99.90
52267;DHT22;38223;50.940;4.034;2023-09-18T01:55:13;20.40;99.90
52267;DHT22;38223;50.940;4.034;2023-09-18T01:57:42;20.50;99.90
52267;DHT22;38223;50.940;4.034;2023-09-18T02:00:14;20.90;99.90
52267;DHT22;38223;50.940;4.034;2023-09-18T02:02:43;21.10;99.90
52267;DHT22;38223;50.940;4.034;2023-09-18T02:05:14;21.10;99.90
52267;DHT22;38223;50.940;4.034;2023-09-18T02:07:50;21.10;99.90
52267;DHT22;38223;50.940;4.034;2023-09-18T02:10:22;21.00;99.90
52267;DHT22;38223;50.940;4.034;2023-09-18T02:12:52;20.80;99.90
52267;DHT22;38223;50.940;4.034;2023-09-18T02:15:27;20.70;99.90
52267;DHT22;38223;50.940;4.034;2023-09-18T02:17:58;20.50;99.90
52267;DHT22;38223;50.940;4.034;2023-09-18T02:20:31;20.40;99.90
52267;DHT22;38223;50.940;4.034;2023-09-18T02:23:03;20.20;99.90
52267;DHT22;38223;50.940;4.034;2023-09-18T02:25:36;20.40;99.90
52267;DHT22;38223;50.940;4.034;2023-09-18T02:30:59;20.70;99.90
52267;DHT22;38223;50.940;4.034;2023-09-18T02:33:27;20.70;99.90
52267;DHT22;38223;50.940;4.034;2023-09-18T02:35:57;20.70;99.90
52267;DHT22;38223;50.940;4.034;2023-09-18T02:38:31;20.70;99.90
52267;DHT22;38223;50.940;4.034;2023-09-18T02:41:03;20.60;99.90
52267;DHT22;38223;50.940;4.034;2023-09-18T02:43:36;20.60;99.90
52267;DHT22;38223;50.940;4.034;2023-09-18T02:46:12;20.60;99.90
52267;DHT22;38223;50.940;4.034;2023-09-18T02:48:41;20.60;99.90
52267;DHT22;38223;50.940;4.034;2023-09-18T02:51:13;20.60;99.90
52267;DHT22;38223;50.940;4.034;2023-09-18T02:53:44;20.50;99.90
52267;DHT22;38223;50.940;4.034;2023-09-18T02:56:16;20.50;99.90
52267;DHT22;38223;50.940;4.034;2023-09-18T02:58:49;20.60;99.90
52267;DHT22;38223;50.940;4.034;2023-09-18T03:01:16;20.60;99.90
52267;DHT22;38223;50.940;4.034;2023-09-18T03:03:52;20.60;99.90
52267;DHT22;38223;50.940;4.034;2023-09-18T03:06:21;20.60;99.90
52267;DHT22;38223;50.940;4.034;2023-09-18T03:08:56;20.60;99.90
52267;DHT22;38223;50.940;4.034;2023-09-18T03:11:25;20.50;99.90
52267;DHT22;38223;50.940;4.034;2023-09-18T03:13:59;20.50;99.90
52267;DHT22;38223;50.940;4.034;2023-09-18T03:16:28;20.50;99.90
52267;DHT22;38223;50.940;4.034;2023-09-18T03:19:02;20.50;99.90
52267;DHT22;38223;50.940;4.034;2023-09-18T03:21:29;20.50;99.90
52267;DHT22;38223;50.940;4.034;2023-09-18T03:24:04;20.50;99.90
52267;DHT22;38223;50.940;4.034;2023-09-18T03:26:35;20.50;99.90
52267;DHT22;38223;50.940;4.034;2023-09-18T03:29:06;20.60;99.90
52267;DHT22;38223;50.940;4.034;2023-09-18T03:31:35;20.50;99.90
52267;DHT22;38223;50.940;4.034;2023-09-18T03:34:04;20.60;99.90
52267;DHT22;38223;50.940;4.034;2023-09-18T03:36:34;20.60;99.90
52267;DHT22;38223;50.940;4.034;2023-09-18T03:39:07;20.60;99.90
52267;DHT22;38223;50.940;4.034;2023-09-18T03:41:41;20.60;99.90
52267;DHT22;38223;50.940;4.034;2023-09-18T03:44:14;20.60;99.90
52267;DHT22;38223;50.940;4.034;2023-09-18T03:46:47;20.50;99.90
52267;DHT22;38223;50.940;4.034;2023-09-18T03:49:19;20.60;99.90
52267;DHT22;38223;50.940;4.034;2023-09-18T03:51:51;20.60;99.90
52267;DHT22;38223;50.940;4.034;2023-09-18T03:54:25;20.70;99.90
52267;DHT22;38223;50.940;4.034;2023-09-18T03:57:00;20.60;99.90
52267;DHT22;38223;50.940;4.034;2023-09-18T03:59:32;20.70;99.90
52267;DHT22;38223;50.940;4.034;2023-09-18T04:02:02;20.60;99.90
52267;DHT22;38223;50.940;4.034;2023-09-18T04:04:36;20.60;99.90
52267;DHT22;38223;50.940;4.034;2023-09-18T04:07:10;20.50;99.90
52267;DHT22;38223;50.940;4.034;2023-09-18T04:09:43;20.50;99.90
52267;DHT22;38223;50.940;4.034;2023-09-18T04:12:15;20.50;99.90
52267;DHT22;38223;50.940;4.034;2023-09-18T04:14:47;20.50;99.90
52267;DHT22;38223;50.940;4.034;2023-09-18T04:17:18;20.50;99.90
52267;DHT22;38223;50.940;4.034;2023-09-18T04:19:52;20.40;99.90
52267;DHT22;38223;50.940;4.034;2023-09-18T04:22:21;20.40;99.90
52267;DHT22;38223;50.940;4.034;2023-09-18T04:24:56;20.30;99.90
52267;DHT22;38223;50.940;4.034;2023-09-18T04:27:24;20.20;99.90
52267;DHT22;38223;50.940;4.034;2023-09-18T04:29:59;20.20;99.90
52267;DHT22;38223;50.940;4.034;2023-09-18T04:32:33;20.10;99.90
52267;DHT22;38223;50.940;4.034;2023-09-18T04:35:05;20.10;99.90
52267;DHT22;38223;50.940;4.034;2023-09-18T04:37:37;20.10;99.90
52267;DHT22;38223;50.940;4.034;2023-09-18T04:40:10;20.20;99.90
52267;DHT22;38223;50.940;4.034;2023-09-18T04:42:40;20.10;99.90
52267;DHT22;38223;50.940;4.034;2023-09-18T04:45:12;20.10;99.90
52267;DHT22;38223;50.940;4.034;2023-09-18T04:47:43;20.10;99.90
52267;DHT22;38223;50.940;4.034;2023-09-18T04:50:15;20.30;99.90
52267;DHT22;38223;50.940;4.034;2023-09-18T04:52:44;20.30;99.90
52267;DHT22;38223;50.940;4.034;2023-09-18T04:55:18;20.20;99.90
52267;DHT22;38223;50.940;4.034;2023-09-18T04:57:49;20.20;99.90
52267;DHT22;38223;50.940;4.034;2023-09-18T05:00:20;20.20;99.90
52267;DHT22;38223;50.940;4.034;2023-09-18T05:02:51;20.20;99.90
52267;DHT22;38223;50.940;4.034;2023-09-18T05:05:23;20.30;99.90
52267;DHT22;38223;50.940;4.034;2023-09-18T05:07:51;20.30;99.90
52267;DHT22;38223;50.940;4.034;2023-09-18T05:10:21;20.30;99.90
52267;DHT22;38223;50.940;4.034;2023-09-18T05:12:52;20.30;99.90
52267;DHT22;38223;50.940;4.034;2023-09-18T05:15:24;20.20;99.90
52267;DHT22;38223;50.940;4.034;2023-09-18T05:18:04;20.20;99.90
52267;DHT22;38223;50.940;4.034;2023-09-18T05:20:37;20.10;99.90
52267;DHT22;38223;50.940;4.034;2023-09-18T05:23:12;20.10;99.90
52267;DHT22;38223;50.940;4.034;2023-09-18T05:25:44;20.00;99.90
52267;DHT22;38223;50.940;4.034;2023-09-18T05:28:15;20.10;99.90
52267;DHT22;38223;50.940;4.034;2023-09-18T05:30:47;20.00;99.90
52267;DHT22;38223;50.940;4.034;2023-09-18T05:33:20;19.90;99.90
52267;DHT22;38223;50.940;4.034;2023-09-18T05:35:50;19.80;99.90
52267;DHT22;38223;50.940;4.034;2023-09-18T05:38:21;19.80;99.90
52267;DHT22;38223;50.940;4.034;2023-09-18T05:41:01;19.70;99.90
52267;DHT22;38223;50.940;4.034;2023-09-18T05:43:27;19.70;99.90
52267;DHT22;38223;50.940;4.034;2023-09-18T05:45:57;19.70;99.90
52267;DHT22;38223;50.940;4.034;2023-09-18T05:48:27;19.70;99.90
52267;DHT22;38223;50.940;4.034;2023-09-18T05:50:55;19.70;99.90
52267;DHT22;38223;50.940;4.034;2023-09-18T05:53:25;19.80;99.90
52267;DHT22;38223;50.940;4.034;2023-09-18T05:55:57;19.80;99.90
52267;DHT22;38223;50.940;4.034;2023-09-18T05:58:28;19.70;99.90
52267;DHT22;38223;50.940;4.034;2023-09-18T06:01:00;19.70;99.90
52267;DHT22;38223;50.940;4.034;2023-09-18T06:03:30;19.80;99.90
52267;DHT22;38223;50.940;4.034;2023-09-18T06:06:04;19.90;99.90
52267;DHT22;38223;50.940;4.034;2023-09-18T06:08:35;19.90;99.90
52267;DHT22;38223;50.940;4.034;2023-09-18T06:11:07;19.90;99.90
52267;DHT22;38223;50.940;4.034;2023-09-18T06:13:40;19.90;99.90
52267;DHT22;38223;50.940;4.034;2023-09-18T06:16:10;19.90;99.90
52267;DHT22;38223;50.940;4.034;2023-09-18T06:18:41;19.90;99.90
52267;DHT22;38223;50.940;4.034;2023-09-18T06:21:10;19.90;99.90
52267;DHT22;38223;50.940;4.034;2023-09-18T06:23:42;19.80;99.90
52267;DHT22;38223;50.940;4.034;2023-09-18T06:26:11;19.80;99.90
52267;DHT22;38223;50.940;4.034;2023-09-18T06:28:46;19.80;99.90
52267;DHT22;38223;50.940;4.034;2023-09-18T06:31:16;19.80;99.90
52267;DHT22;38223;50.940;4.034;2023-09-18T06:33:44;19.70;99.90
52267;DHT22;38223;50.940;4.034;2023-09-18T06:36:15;19.70;99.90
52267;DHT22;38223;50.940;4.034;2023-09-18T06:38:48;19.60;99.90
52267;DHT22;38223;50.940;4.034;2023-09-18T06:41:19;19.50;99.90
52267;DHT22;38223;50.940;4.034;2023-09-18T06:43:52;19.60;99.90
52267;DHT22;38223;50.940;4.034;2023-09-18T06:46:22;19.50;99.90
52267;DHT22;38223;50.940;4.034;2023-09-18T06:48:53;19.50;99.90
52267;DHT22;38223;50.940;4.034;2023-09-18T06:51:34;19.60;99.90
52267;DHT22;38223;50.940;4.034;2023-09-18T06:54:08;19.60;99.90
52267;DHT22;38223;50.940;4.034;2023-09-18T06:56:38;19.60;99.90
52267;DHT22;38223;50.940;4.034;2023-09-18T06:59:13;19.60;99.90
52267;DHT22;38223;50.940;4.034;2023-09-18T07:01:47;19.70;99.90
52267;DHT22;38223;50.940;4.034;2023-09-18T07:04:15;19.60;99.90
52267;DHT22;38223;50.940;4.034;2023-09-18T07:06:47;19.50;99.90
52267;DHT22;38223;50.940;4.034;2023-09-18T07:09:16;19.40;99.90
52267;DHT22;38223;50.940;4.034;2023-09-18T07:11:48;19.40;99.90
52267;DHT22;38223;50.940;4.034;2023-09-18T07:14:24;19.40;99.90
52267;DHT22;38223;50.940;4.034;2023-09-18T07:16:54;19.50;99.90
52267;DHT22;38223;50.940;4.034;2023-09-18T07:19:26;19.50;99.90
52267;DHT22;38223;50.940;4.034;2023-09-18T07:21:57;19.50;99.90
52267;DHT22;38223;50.940;4.034;2023-09-18T07:24:27;19.60;99.90
52267;DHT22;38223;50.940;4.034;2023-09-18T07:26:58;19.70;99.90
52267;DHT22;38223;50.940;4.034;2023-09-18T07:29:32;19.60;99.90
52267;DHT22;38223;50.940;4.034;2023-09-18T07:32:06;19.50;99.90
52267;DHT22;38223;50.940;4.034;2023-09-18T07:34:38;19.60;99.90
52267;DHT22;38223;50.940;4.034;2023-09-18T07:37:07;19.60;99.90
52267;DHT22;38223;50.940;4.034;2023-09-18T07:39:37;19.70;99.90
52267;DHT22;38223;50.940;4.034;2023-09-18T07:42:09;19.70;99.90
52267;DHT22;38223;50.940;4.034;2023-09-18T07:44:41;19.70;99.90
52267;DHT22;38223;50.940;4.034;2023-09-18T07:47:15;19.70;99.90
52267;DHT22;38223;50.940;4.034;2023-09-18T07:49:47;19.70;99.90
52267;DHT22;38223;50.940;4.034;2023-09-18T07:52:21;19.80;99.90
52267;DHT22;38223;50.940;4.034;2023-09-18T07:54:54;19.80;99.90
52267;DHT22;38223;50.940;4.034;2023-09-18T07:57:25;19.80;99.90
52267;DHT22;38223;50.940;4.034;2023-09-18T07:59:58;19.90;99.90
52267;DHT22;38223;50.940;4.034;2023-09-18T08:02:32;20.00;99.90
52267;DHT22;38223;50.940;4.034;2023-09-18T08:05:20;20.10;99.90
52267;DHT22;38223;50.940;4.034;2023-09-18T08:07:49;20.20;99.90
52267;DHT22;38223;50.940;4.034;2023-09-18T08:10:21;20.40;99.90
52267;DHT22;38223;50.940;4.034;2023-09-18T08:12:53;20.40;99.90
52267;DHT22;38223;50.940;4.034;2023-09-18T08:15:25;20.30;99.90
52267;DHT22;38223;50.940;4.034;2023-09-18T08:17:57;20.30;99.90
52267;DHT22;38223;50.940;4.034;2023-09-18T08:20:28;20.40;99.90
52267;DHT22;38223;50.940;4.034;2023-09-18T08:23:06;20.40;99.90
52267;DHT22;38223;50.940;4.034;2023-09-18T08:25:36;20.30;99.90
52267;DHT22;38223;50.940;4.034;2023-09-18T08:28:09;20.20;99.90
52267;DHT22;38223;50.940;4.034;2023-09-18T08:30:43;20.20;99.90
52267;DHT22;38223;50.940;4.034;2023-09-18T08:33:15;20.30;99.90
52267;DHT22;38223;50.940;4.034;2023-09-18T08:35:44;20.40;99.90
52267;DHT22;38223;50.940;4.034;2023-09-18T08:38:16;20.40;99.90
52267;DHT22;38223;50.940;4.034;2023-09-18T08:40:53;20.30;99.90
52267;DHT22;38223;50.940;4.034;2023-09-18T08:43:24;20.30;99.90
52267;DHT22;38223;50.940;4.034;2023-09-18T08:45:59;20.20;99.90
52267;DHT22;38223;50.940;4.034;2023-09-18T08:48:31;20.10;99.90
52267;DHT22;38223;50.940;4.034;2023-09-18T08:51:06;20.00;99.90
52267;DHT22;38223;50.940;4.034;2023-09-18T08:53:41;19.90;99.90
52267;DHT22;38223;50.940;4.034;2023-09-18T08:56:14;20.00;99.90
52267;DHT22;38223;50.940;4.034;2023-09-18T08:58:42;20.00;99.90
52267;DHT22;38223;50.940;4.034;2023-09-18T09:01:17;20.10;99.90
52267;DHT22;38223;50.940;4.034;2023-09-18T09:03:48;20.20;99.90
52267;DHT22;38223;50.940;4.034;2023-09-18T09:06:21;20.20;99.90
52267;DHT22;38223;50.940;4.034;2023-09-18T09:08:51;20.20;99.90
52267;DHT22;38223;50.940;4.034;2023-09-18T09:11:20;20.30;99.90
52267;DHT22;38223;50.940;4.034;2023-09-18T09:16:41;20.50;99.90
52267;DHT22;38223;50.940;4.034;2023-09-18T09:19:15;20.50;99.90
52267;DHT22;38223;50.940;4.034;2023-09-18T09:21:45;20.40;99.90
52267;DHT22;38223;50.940;4.034;2023-09-18T09:27:11;20.50;99.90
52267;DHT22;38223;50.940;4.034;2023-09-18T09:29:45;20.40;99.90
52267;DHT22;38223;50.940;4.034;2023-09-18T09:32:18;20.40;99.90
52267;DHT22;38223;50.940;4.034;2023-09-18T09:34:48;20.40;99.90
52267;DHT22;38223;50.940;4.034;2023-09-18T09:37:29;20.50;99.90
52267;DHT22;38223;50.940;4.034;2023-09-18T09:39:54;20.50;99.90
52267;DHT22;38223;50.940;4.034;2023-09-18T09:42:27;20.50;99.90
52267;DHT22;38223;50.940;4.034;2023-09-18T09:45:04;20.50;99.90
52267;DHT22;38223;50.940;4.034;2023-09-18T09:47:35;20.50;99.90
52267;DHT22;38223;50.940;4.034;2023-09-18T09:50:11;20.60;99.90
52267;DHT22;38223;50.940;4.034;2023-09-18T09:52:45;20.60;99.90
52267;DHT22;38223;50.940;4.034;2023-09-18T09:55:29;20.60;99.90
52267;DHT22;38223;50.940;4.034;2023-09-18T09:58:03;20.60;99.90
52267;DHT22;38223;50.940;4.034;2023-09-18T10:00:49;20.50;99.90
52267;DHT22;38223;50.940;4.034;2023-09-18T10:03:24;20.40;99.90
52267;DHT22;38223;50.940;4.034;2023-09-18T10:05:55;20.30;99.90
52267;DHT22;38223;50.940;4.034;2023-09-18T10:08:28;20.20;99.90
52267;DHT22;38223;50.940;4.034;2023-09-18T10:11:01;20.40;99.90
52267;DHT22;38223;50.940;4.034;2023-09-18T10:13:33;20.40;99.90
52267;DHT22;38223;50.940;4.034;2023-09-18T10:16:04;20.50;99.90
52267;DHT22;38223;50.940;4.034;2023-09-18T10:26:41;20.50;99.90
52267;DHT22;38223;50.940;4.034;2023-09-18T10:29:11;20.40;99.90
52267;DHT22;38223;50.940;4.034;2023-09-18T10:31:41;20.40;99.90
52267;DHT22;38223;50.940;4.034;2023-09-18T10:34:19;20.40;99.90
52267;DHT22;38223;50.940;4.034;2023-09-18T10:36:50;20.30;99.90
52267;DHT22;38223;50.940;4.034;2023-09-18T10:39:24;20.40;99.90
52267;DHT22;38223;50.940;4.034;2023-09-18T10:41:55;20.50;99.90
52267;DHT22;38223;50.940;4.034;2023-09-18T10:44:30;20.60;99.90
52267;DHT22;38223;50.940;4.034;2023-09-18T10:47:05;20.80;99.90
52267;DHT22;38223;50.940;4.034;2023-09-18T10:49:36;20.90;99.90
52267;DHT22;38223;50.940;4.034;2023-09-18T10:52:11;21.00;99.90
52267;DHT22;38223;50.940;4.034;2023-09-18T10:54:39;21.00;99.90
52267;DHT22;38223;50.940;4.034;2023-09-18T10:57:11;21.10;99.90
52267;DHT22;38223;50.940;4.034;2023-09-18T10:59:47;21.10;99.90
52267;DHT22;38223;50.940;4.034;2023-09-18T11:02:15;21.10;99.90
52267;DHT22;38223;50.940;4.034;2023-09-18T11:04:46;21.10;99.90
52267;DHT22;38223;50.940;4.034;2023-09-18T11:07:23;21.10;99.90
52267;DHT22;38223;50.940;4.034;2023-09-18T11:09:52;21.10;99.90
52267;DHT22;38223;50.940;4.034;2023-09-18T11:12:21;21.20;99.90
52267;DHT22;38223;50.940;4.034;2023-09-18T11:15:00;21.30;99.90
52267;DHT22;38223;50.940;4.034;2023-09-18T11:17:39;21.40;99.90
52267;DHT22;38223;50.940;4.034;2023-09-18T11:23:01;21.50;99.90
52267;DHT22;38223;50.940;4.034;2023-09-18T11:25:37;21.60;99.90
52267;DHT22;38223;50.940;4.034;2023-09-18T11:28:08;21.60;99.90
52267;DHT22;38223;50.940;4.034;2023-09-18T11:30:38;21.60;99.90
52267;DHT22;38223;50.940;4.034;2023-09-18T11:33:12;21.70;99.90
52267;DHT22;38223;50.940;4.034;2023-09-18T11:35:50;21.90;99.90
52267;DHT22;38223;50.940;4.034;2023-09-18T11:38:18;21.90;99.90
52267;DHT22;38223;50.940;4.034;2023-09-18T11:40:50;22.00;99.90
52267;DHT22;38223;50.940;4.034;2023-09-18T11:43:29;22.10;99.90
52267;DHT22;38223;50.940;4.034;2023-09-18T11:46:02;22.10;99.90
52267;DHT22;38223;50.940;4.034;2023-09-18T11:48:32;22.10;99.90
52267;DHT22;38223;50.940;4.034;2023-09-18T11:51:06;22.20;99.90
52267;DHT22;38223;50.940;4.034;2023-09-18T11:53:39;22.30;99.90
52267;DHT22;38223;50.940;4.034;2023-09-18T11:56:14;22.30;99.90
52267;DHT22;38223;50.940;4.034;2023-09-18T11:58:50;22.30;99.90
52267;DHT22;38223;50.940;4.034;2023-09-18T12:01:22;22.50;99.90
52267;DHT22;38223;50.940;4.034;2023-09-18T12:04:00;22.50;99.90
52267;DHT22;38223;50.940;4.034;2023-09-18T12:06:27;22.40;99.90
52267;DHT22;38223;50.940;4.034;2023-09-18T12:08:57;22.40;99.90
52267;DHT22;38223;50.940;4.034;2023-09-18T12:11:26;22.50;99.90
52267;DHT22;38223;50.940;4.034;2023-09-18T12:13:59;22.60;99.90
52267;DHT22;38223;50.940;4.034;2023-09-18T12:16:29;22.60;99.90
52267;DHT22;38223;50.940;4.034;2023-09-18T12:21:50;22.80;99.90
52267;DHT22;38223;50.940;4.034;2023-09-18T12:24:25;22.90;99.90
52267;DHT22;38223;50.940;4.034;2023-09-18T12:26:58;23.00;99.90
52267;DHT22;38223;50.940;4.034;2023-09-18T12:29:28;23.20;99.90
52267;DHT22;38223;50.940;4.034;2023-09-18T12:32:03;23.20;99.90
52267;DHT22;38223;50.940;4.034;2023-09-18T12:34:37;23.30;99.90
52267;DHT22;38223;50.940;4.034;2023-09-18T12:37:10;23.30;99.90
52267;DHT22;38223;50.940;4.034;2023-09-18T12:39:44;23.30;99.90
52267;DHT22;38223;50.940;4.034;2023-09-18T12:42:19;23.20;99.90
52267;DHT22;38223;50.940;4.034;2023-09-18T12:44:51;23.20;99.90
52267;DHT22;38223;50.940;4.034;2023-09-18T12:47:21;23.30;99.90
52267;DHT22;38223;50.940;4.034;2023-09-18T12:49:50;23.40;99.90
52267;DHT22;38223;50.940;4.034;2023-09-18T12:52:22;23.50;99.90
52267;DHT22;38223;50.940;4.034;2023-09-18T12:54:51;23.50;99.90
52267;DHT22;38223;50.940;4.034;2023-09-18T12:57:22;23.60;99.90
52267;DHT22;38223;50.940;4.034;2023-09-18T12:59:50;23.70;99.90
52267;DHT22;38223;50.940;4.034;2023-09-18T13:02:22;23.80;99.90
52267;DHT22;38223;50.940;4.034;2023-09-18T13:04:58;23.90;99.90
52267;DHT22;38223;50.940;4.034;2023-09-18T13:07:26;23.90;99.90
52267;DHT22;38223;50.940;4.034;2023-09-18T13:10:03;23.90;99.90
52267;DHT22;38223;50.940;4.034;2023-09-18T13:12:48;23.90;99.90
52267;DHT22;38223;50.940;4.034;2023-09-18T13:15:35;23.90;99.90
52267;DHT22;38223;50.940;4.034;2023-09-18T13:18:10;23.90;99.90
52267;DHT22;38223;50.940;4.034;2023-09-18T13:20:38;23.90;99.90
52267;DHT22;38223;50.940;4.034;2023-09-18T13:23:09;23.90;99.90
52267;DHT22;38223;50.940;4.034;2023-09-18T13:25:41;24.00;99.90
52267;DHT22;38223;50.940;4.034;2023-09-18T13:28:15;23.90;99.90
52267;DHT22;38223;50.940;4.034;2023-09-18T13:30:49;23.90;99.90
52267;DHT22;38223;50.940;4.034;2023-09-18T13:33:20;23.80;99.90
52267;DHT22;38223;50.940;4.034;2023-09-18T13:35:51;23.80;99.90
52267;DHT22;38223;50.940;4.034;2023-09-18T13:38:26;23.80;99.90
52267;DHT22;38223;50.940;4.034;2023-09-18T13:40:58;23.70;99.90
52267;DHT22;38223;50.940;4.034;2023-09-18T13:43:35;23.80;99.90
52267;DHT22;38223;50.940;4.034;2023-09-18T13:46:11;23.70;99.90
52267;DHT22;38223;50.940;4.034;2023-09-18T13:48:41;23.60;99.90
52267;DHT22;38223;50.940;4.034;2023-09-18T13:51:14;23.40;99.90
52267;DHT22;38223;50.940;4.034;2023-09-18T13:53:42;23.40;99.90
52267;DHT22;38223;50.940;4.034;2023-09-18T13:56:13;23.40;99.90
52267;DHT22;38223;50.940;4.034;2023-09-18T13:58:43;23.60;99.90
52267;DHT22;38223;50.940;4.034;2023-09-18T14:03:40;23.40;99.90
52267;DHT22;38223;50.940;4.034;2023-09-18T14:06:12;22.20;99.90
52267;DHT22;38223;50.940;4.034;2023-09-18T14:08:42;20.80;99.90
52267;DHT22;38223;50.940;4.034;2023-09-18T14:11:13;20.00;99.90
52267;DHT22;38223;50.940;4.034;2023-09-18T14:13:43;19.60;99.90
52267;DHT22;38223;50.940;4.034;2023-09-18T14:16:13;19.40;99.90
52267;DHT22;38223;50.940;4.034;2023-09-18T14:18:45;19.40;99.90
52267;DHT22;38223;50.940;4.034;2023-09-18T14:21:15;19.60;99.90
52267;DHT22;38223;50.940;4.034;2023-09-18T14:23:44;19.80;99.90
52267;DHT22;38223;50.940;4.034;2023-09-18T14:26:14;20.00;99.90
52267;DHT22;38223;50.940;4.034;2023-09-18T14:28:46;20.20;99.90
52267;DHT22;38223;50.940;4.034;2023-09-18T14:31:18;20.20;99.90
52267;DHT22;38223;50.940;4.034;2023-09-18T14:33:49;20.20;99.90
52267;DHT22;38223;50.940;4.034;2023-09-18T14:36:25;20.20;99.90
52267;DHT22;38223;50.940;4.034;2023-09-18T14:38:57;20.20;99.90
52267;DHT22;38223;50.940;4.034;2023-09-18T14:41:31;20.30;99.90
52267;DHT22;38223;50.940;4.034;2023-09-18T14:44:07;20.20;99.90
52267;DHT22;38223;50.940;4.034;2023-09-18T14:46:39;20.20;99.90
52267;DHT22;38223;50.940;4.034;2023-09-18T14:49:10;20.10;99.90
52267;DHT22;38223;50.940;4.034;2023-09-18T14:51:40;20.00;99.90
52267;DHT22;38223;50.940;4.034;2023-09-18T14:54:12;20.00;99.90
52267;DHT22;38223;50.940;4.034;2023-09-18T14:56:43;20.00;99.90
52267;DHT22;38223;50.940;4.034;2023-09-18T14:59:14;20.10;99.90
52267;DHT22;38223;50.940;4.034;2023-09-18T15:01:48;20.20;99.90
52267;DHT22;38223;50.940;4.034;2023-09-18T15:04:20;20.50;99.90
52267;DHT22;38223;50.940;4.034;2023-09-18T15:06:50;20.90;99.90
52267;DHT22;38223;50.940;4.034;2023-09-18T15:09:21;21.20;99.90
52267;DHT22;38223;50.940;4.034;2023-09-18T15:11:53;21.20;99.90
52267;DHT22;38223;50.940;4.034;2023-09-18T15:14:30;21.10;99.90
52267;DHT22;38223;50.940;4.034;2023-09-18T15:16:58;21.00;99.90
52267;DHT22;38223;50.940;4.034;2023-09-18T15:19:30;21.00;99.90
52267;DHT22;38223;50.940;4.034;2023-09-18T15:22:04;20.90;99.90
52267;DHT22;38223;50.940;4.034;2023-09-18T15:24:40;20.90;99.90
52267;DHT22;38223;50.940;4.034;2023-09-18T15:27:15;20.70;99.90
52267;DHT22;38223;50.940;4.034;2023-09-18T15:29:48;20.80;99.90
52267;DHT22;38223;50.940;4.034;2023-09-18T15:32:22;20.80;99.90
52267;DHT22;38223;50.940;4.034;2023-09-18T15:34:54;20.90;99.90
52267;DHT22;38223;50.940;4.034;2023-09-18T15:37:24;21.00;99.90
52267;DHT22;38223;50.940;4.034;2023-09-18T15:39:57;21.20;99.90
52267;DHT22;38223;50.940;4.034;2023-09-18T15:42:30;21.30;99.90
52267;DHT22;38223;50.940;4.034;2023-09-18T15:45:02;21.40;99.90
52267;DHT22;38223;50.940;4.034;2023-09-18T15:47:35;21.40;99.90
52267;DHT22;38223;50.940;4.034;2023-09-18T15:50:06;21.60;99.90
52267;DHT22;38223;50.940;4.034;2023-09-18T15:52:39;21.50;99.90
52267;DHT22;38223;50.940;4.034;2023-09-18T15:55:13;21.50;99.90
52267;DHT22;38223;50.940;4.034;2023-09-18T15:57:46;21.40;99.90
52267;DHT22;38223;50.940;4.034;2023-09-18T16:00:17;21.30;99.90
52267;DHT22;38223;50.940;4.034;2023-09-18T16:02:53;21.20;99.90
52267;DHT22;38223;50.940;4.034;2023-09-18T16:05:22;21.10;99.90
52267;DHT22;38223;50.940;4.034;2023-09-18T16:07:54;21.10;99.90
52267;DHT22;38223;50.940;4.034;2023-09-18T16:10:29;21.20;99.90
52267;DHT22;38223;50.940;4.034;2023-09-18T16:12:59;21.30;99.90
52267;DHT22;38223;50.940;4.034;2023-09-18T16:15:34;21.90;99.90
52267;DHT22;38223;50.940;4.034;2023-09-18T16:18:07;22.30;99.90
52267;DHT22;38223;50.940;4.034;2023-09-18T16:20:36;22.40;99.90
52267;DHT22;38223;50.940;4.034;2023-09-18T16:23:11;22.30;99.90
52267;DHT22;38223;50.940;4.034;2023-09-18T16:25:40;22.00;99.90
52267;DHT22;38223;50.940;4.034;2023-09-18T16:28:12;21.70;99.90